sensor_id;sensor_type;location;lat;lon;timestamp;pressure;altitude;pressure_sealevel;temperature;humidity
46223;BME280;31943;51.410;7.564;2022-08-30T00:00:51;100690.09;;;17.27;55.60
46223;BME280;31943;51.410;7.564;2022-08-30T00:03:17;100698.91;;;17.26;56.20
46223;BME280;31943;51.410;7.564;2022-08-30T00:05:46;100695.41;;;17.26;56.33
46223;BME280;31943;51.410;7.564;2022-08-30T00:08:12;100688.34;;;17.26;56.47
46223;BME280;31943;51.410;7.564;2022-08-30T00:10:41;100685.72;;;17.25;56.63
46223;BME280;31943;51.410;7.564;2022-08-30T00:13:08;100687.50;;;17.24;56.21
46223;BME280;31943;51.410;7.564;2022-08-30T00:15:34;100689.25;;;17.24;56.28
46223;BME280;31943;51.410;7.564;2022-08-30T00:18:00;100689.28;;;17.20;56.60
46223;BME280;31943;51.410;7.564;2022-08-30T00:20:29;100691.91;;;17.24;56.21
46223;BME280;31943;51.410;7.564;2022-08-30T00:23:00;100681.34;;;17.24;56.40
46223;BME280;31943;51.410;7.564;2022-08-30T00:25:27;100691.84;;;17.27;56.59
46223;BME280;31943;51.410;7.564;2022-08-30T00:27:54;100685.69;;;17.28;56.63
46223;BME280;31943;51.410;7.564;2022-08-30T00:30:20;100687.44;;;17.29;56.77
46223;BME280;31943;51.410;7.564;2022-08-30T00:32:46;100684.78;;;17.30;56.91
46223;BME280;31943;51.410;7.564;2022-08-30T00:35:15;100686.53;;;17.33;56.64
46223;BME280;31943;51.410;7.564;2022-08-30T00:37:41;100679.50;;;17.32;56.91
46223;BME280;31943;51.410;7.564;2022-08-30T00:40:11;100682.16;;;17.30;57.08
46223;BME280;31943;51.410;7.564;2022-08-30T00:42:37;100676.88;;;17.30;57.23
46223;BME280;31943;51.410;7.564;2022-08-30T00:45:10;100672.50;;;17.29;57.61
46223;BME280;31943;51.410;7.564;2022-08-30T00:47:37;100677.78;;;17.28;57.55
46223;BME280;31943;51.410;7.564;2022-08-30T00:50:04;100678.66;;;17.27;57.74
46223;BME280;31943;51.410;7.564;2022-08-30T00:52:30;100679.56;;;17.26;57.43
46223;BME280;31943;51.410;7.564;2022-08-30T00:54:55;100695.41;;;17.26;57.75
46223;BME280;31943;51.410;7.564;2022-08-30T00:57:23;100684.84;;;17.24;58.02
46223;BME280;31943;51.410;7.564;2022-08-30T00:59:48;100687.50;;;17.23;57.96
46223;BME280;31943;51.410;7.564;2022-08-30T01:02:17;100684.00;;;17.22;58.09
46223;BME280;31943;51.410;7.564;2022-08-30T01:04:44;100691.91;;;17.22;57.90
46223;BME280;31943;51.410;7.564;2022-08-30T01:07:10;100682.28;;;17.19;57.87
46223;BME280;31943;51.410;7.564;2022-08-30T01:09:36;100689.34;;;17.17;57.13
46223;BME280;31943;51.410;7.564;2022-08-30T01:12:04;100690.19;;;17.16;57.50
46223;BME280;31943;51.410;7.564;2022-08-30T01:14:33;100691.97;;;17.17;57.31
46223;BME280;31943;51.410;7.564;2022-08-30T01:16:59;100699.88;;;17.17;57.51
46223;BME280;31943;51.410;7.564;2022-08-30T01:19:38;100693.72;;;17.17;57.51
46223;BME280;31943;51.410;7.564;2022-08-30T01:22:10;100695.47;;;17.15;57.94
46223;BME280;31943;51.410;7.564;2022-08-30T01:24:43;100692.03;;;17.11;58.04
46223;BME280;31943;51.410;7.564;2022-08-30T01:27:09;100692.03;;;17.10;58.11
46223;BME280;31943;51.410;7.564;2022-08-30T01:29:42;100691.19;;;17.09;57.87
46223;BME280;31943;51.410;7.564;2022-08-30T01:32:14;100690.31;;;17.07;57.92
46223;BME280;31943;51.410;7.564;2022-08-30T01:34:40;100692.06;;;17.05;58.03
46223;BME280;31943;51.410;7.564;2022-08-30T01:37:06;100682.44;;;17.03;58.03
46223;BME280;31943;51.410;7.564;2022-08-30T01:39:32;100690.38;;;16.99;58.22
46223;BME280;31943;51.410;7.564;2022-08-30T01:42:00;100694.81;;;16.97;58.43
46223;BME280;31943;51.410;7.564;2022-08-30T01:44:26;100701.81;;;16.95;58.14
46223;BME280;31943;51.410;7.564;2022-08-30T01:46:52;100688.69;;;16.94;58.40
46223;BME280;31943;51.410;7.564;2022-08-30T01:49:18;100700.94;;;16.96;58.25
46223;BME280;31943;51.410;7.564;2022-08-30T01:51:44;100693.03;;;16.98;58.28
46223;BME280;31943;51.410;7.564;2022-08-30T01:54:12;100693.03;;;16.99;58.62
46223;BME280;31943;51.410;7.564;2022-08-30T01:56:37;100691.25;;;17.00;58.40
46223;BME280;31943;51.410;7.564;2022-08-30T01:59:05;100692.13;;;17.00;58.46
46223;BME280;31943;51.410;7.564;2022-08-30T02:01:32;100691.25;;;16.98;58.59
46223;BME280;31943;51.410;7.564;2022-08-30T02:03:59;100693.03;;;16.98;58.85
46223;BME280;31943;51.410;7.564;2022-08-30T02:06:25;100694.81;;;16.97;59.09
46223;BME280;31943;51.410;7.564;2022-08-30T02:08:51;100700.94;;;16.98;58.54
46223;BME280;31943;51.410;7.564;2022-08-30T02:11:17;100701.78;;;17.00;58.69
46223;BME280;31943;51.410;7.564;2022-08-30T02:13:43;100705.28;;;17.02;58.88
46223;BME280;31943;51.410;7.564;2022-08-30T02:16:13;100698.25;;;17.03;58.78
46223;BME280;31943;51.410;7.564;2022-08-30T02:18:39;100691.22;;;17.03;58.79
46223;BME280;31943;51.410;7.564;2022-08-30T02:21:06;100694.75;;;17.02;59.05
46223;BME280;31943;51.410;7.564;2022-08-30T02:23:32;100695.66;;;16.99;59.02
46223;BME280;31943;51.410;7.564;2022-08-30T02:25:58;100700.03;;;16.99;59.09
46223;BME280;31943;51.410;7.564;2022-08-30T02:28:24;100693.91;;;16.97;59.02
46223;BME280;31943;51.410;7.564;2022-08-30T02:30:51;100693.91;;;16.97;58.97
46223;BME280;31943;51.410;7.564;2022-08-30T02:33:19;100696.56;;;16.95;58.95
46223;BME280;31943;51.410;7.564;2022-08-30T02:35:45;100687.75;;;16.96;58.91
46223;BME280;31943;51.410;7.564;2022-08-30T02:38:11;100691.25;;;16.98;59.03
46223;BME280;31943;51.410;7.564;2022-08-30T02:40:37;100682.50;;;16.96;58.98
46223;BME280;31943;51.410;7.564;2022-08-30T02:43:04;100688.63;;;16.95;58.82
46223;BME280;31943;51.410;7.564;2022-08-30T02:45:32;100682.50;;;16.95;59.13
46223;BME280;31943;51.410;7.564;2022-08-30T02:47:58;100687.81;;;16.90;59.46
46223;BME280;31943;51.410;7.564;2022-08-30T02:50:31;100679.94;;;16.87;59.43
46223;BME280;31943;51.410;7.564;2022-08-30T02:52:57;100686.13;;;16.85;59.59
46223;BME280;31943;51.410;7.564;2022-08-30T02:55:23;100679.09;;;16.84;59.31
46223;BME280;31943;51.410;7.564;2022-08-30T02:57:50;100677.34;;;16.83;59.21
46223;BME280;31943;51.410;7.564;2022-08-30T03:00:18;100674.69;;;16.81;59.38
46223;BME280;31943;51.410;7.564;2022-08-30T03:02:44;100677.34;;;16.79;59.45
46223;BME280;31943;51.410;7.564;2022-08-30T03:05:12;100672.97;;;16.78;59.21
46223;BME280;31943;51.410;7.564;2022-08-30T03:07:41;100676.47;;;16.77;59.55
46223;BME280;31943;51.410;7.564;2022-08-30T03:10:08;100680.88;;;16.75;59.45
46223;BME280;31943;51.410;7.564;2022-08-30T03:12:33;100682.66;;;16.75;59.41
46223;BME280;31943;51.410;7.564;2022-08-30T03:15:02;100679.16;;;16.74;59.42
46223;BME280;31943;51.410;7.564;2022-08-30T03:17:29;100680.00;;;16.75;59.28
46223;BME280;31943;51.410;7.564;2022-08-30T03:19:55;100679.16;;;16.74;59.54
46223;BME280;31943;51.410;7.564;2022-08-30T03:22:21;100667.75;;;16.72;59.60
46223;BME280;31943;51.410;7.564;2022-08-30T03:24:49;100664.25;;;16.69;59.56
46223;BME280;31943;51.410;7.564;2022-08-30T03:27:15;100669.53;;;16.67;60.06
46223;BME280;31943;51.410;7.564;2022-08-30T03:29:41;100672.19;;;16.66;59.80
46223;BME280;31943;51.410;7.564;2022-08-30T03:32:07;100681.00;;;16.60;59.74
46223;BME280;31943;51.410;7.564;2022-08-30T03:34:33;100676.63;;;16.59;60.42
46223;BME280;31943;51.410;7.564;2022-08-30T03:36:59;100671.38;;;16.57;60.06
46223;BME280;31943;51.410;7.564;2022-08-30T03:39:26;100673.13;;;16.57;60.20
46223;BME280;31943;51.410;7.564;2022-08-30T03:41:53;100675.78;;;16.52;60.36
46223;BME280;31943;51.410;7.564;2022-08-30T03:44:22;100672.28;;;16.50;60.13
46223;BME280;31943;51.410;7.564;2022-08-30T03:46:47;100679.34;;;16.48;60.22
46223;BME280;31943;51.410;7.564;2022-08-30T03:49:14;100676.75;;;16.47;59.91
46223;BME280;31943;51.410;7.564;2022-08-30T03:51:40;100675.03;;;16.41;59.80
46223;BME280;31943;51.410;7.564;2022-08-30T03:54:06;100686.44;;;16.38;59.49
46223;BME280;31943;51.410;7.564;2022-08-30T03:56:33;100681.19;;;16.35;59.46
46223;BME280;31943;51.410;7.564;2022-08-30T03:59:00;100684.75;;;16.31;59.67
46223;BME280;31943;51.410;7.564;2022-08-30T04:01:26;100687.38;;;16.30;59.57
46223;BME280;31943;51.410;7.564;2022-08-30T04:03:52;100676.03;;;16.21;59.39
46223;BME280;31943;51.410;7.564;2022-08-30T04:06:18;100683.97;;;16.14;59.81
46223;BME280;31943;51.410;7.564;2022-08-30T04:08:44;100681.34;;;16.12;59.71
46223;BME280;31943;51.410;7.564;2022-08-30T04:11:10;100674.34;;;16.08;59.33
46223;BME280;31943;51.410;7.564;2022-08-30T04:13:37;100691.03;;;16.04;59.42
46223;BME280;31943;51.410;7.564;2022-08-30T04:16:05;100690.19;;;15.99;59.35
46223;BME280;31943;51.410;7.564;2022-08-30T04:18:31;100681.41;;;15.97;59.62
46223;BME280;31943;51.410;7.564;2022-08-30T04:20:57;100677.91;;;15.93;59.50
46223;BME280;31943;51.410;7.564;2022-08-30T04:23:23;100685.00;;;15.90;59.88
46223;BME280;31943;51.410;7.564;2022-08-30T04:25:49;100680.59;;;15.86;59.82
46223;BME280;31943;51.410;7.564;2022-08-30T04:28:15;100689.38;;;15.85;59.69
46223;BME280;31943;51.410;7.564;2022-08-30T04:30:42;100690.28;;;15.82;59.45
46223;BME280;31943;51.410;7.564;2022-08-30T04:33:10;100692.03;;;15.80;59.57
46223;BME280;31943;51.410;7.564;2022-08-30T04:35:39;100685.91;;;15.76;59.50
46223;BME280;31943;51.410;7.564;2022-08-30T04:38:06;100689.41;;;15.71;59.10
46223;BME280;31943;51.410;7.564;2022-08-30T04:40:32;100689.44;;;15.66;59.35
46223;BME280;31943;51.410;7.564;2022-08-30T04:42:58;100692.06;;;15.63;59.63
46223;BME280;31943;51.410;7.564;2022-08-30T04:45:23;100684.19;;;15.66;59.90
46223;BME280;31943;51.410;7.564;2022-08-30T04:47:49;100688.53;;;15.69;60.14
46223;BME280;31943;51.410;7.564;2022-08-30T04:50:18;100689.41;;;15.68;59.97
46223;BME280;31943;51.410;7.564;2022-08-30T04:52:44;100696.44;;;15.67;59.82
46223;BME280;31943;51.410;7.564;2022-08-30T04:55:11;100694.66;;;15.68;59.83
46223;BME280;31943;51.410;7.564;2022-08-30T04:57:38;100703.47;;;15.68;59.57
46223;BME280;31943;51.410;7.564;2022-08-30T05:00:05;100706.09;;;15.67;59.45
46223;BME280;31943;51.410;7.564;2022-08-30T05:02:31;100703.47;;;15.65;59.29
46223;BME280;31943;51.410;7.564;2022-08-30T05:04:57;100706.94;;;15.64;59.43
46223;BME280;31943;51.410;7.564;2022-08-30T05:07:24;100709.63;;;15.62;59.61
46223;BME280;31943;51.410;7.564;2022-08-30T05:09:50;100712.25;;;15.61;59.50
46223;BME280;31943;51.410;7.564;2022-08-30T05:12:15;100712.25;;;15.62;59.74
46223;BME280;31943;51.410;7.564;2022-08-30T05:14:41;100716.63;;;15.63;60.22
46223;BME280;31943;51.410;7.564;2022-08-30T05:17:07;100711.34;;;15.63;60.02
46223;BME280;31943;51.410;7.564;2022-08-30T05:19:32;100716.63;;;15.65;59.89
46223;BME280;31943;51.410;7.564;2022-08-30T05:21:58;100717.47;;;15.67;59.84
46223;BME280;31943;51.410;7.564;2022-08-30T05:24:25;100713.09;;;15.68;60.25
46223;BME280;31943;51.410;7.564;2022-08-30T05:26:50;100713.09;;;15.69;60.31
46223;BME280;31943;51.410;7.564;2022-08-30T05:29:16;100720.97;;;15.72;60.50
46223;BME280;31943;51.410;7.564;2022-08-30T05:31:42;100724.53;;;15.76;60.77
46223;BME280;31943;51.410;7.564;2022-08-30T05:34:08;100730.63;;;15.82;60.76
46223;BME280;31943;51.410;7.564;2022-08-30T05:36:37;100726.22;;;15.85;60.75
46223;BME280;31943;51.410;7.564;2022-08-30T05:39:05;100730.59;;;15.92;60.92
46223;BME280;31943;51.410;7.564;2022-08-30T05:41:32;100720.91;;;15.97;60.84
46223;BME280;31943;51.410;7.564;2022-08-30T05:44:00;100725.25;;;16.02;61.06
46223;BME280;31943;51.410;7.564;2022-08-30T05:46:27;100722.59;;;16.07;60.81
46223;BME280;31943;51.410;7.564;2022-08-30T05:48:54;100728.72;;;16.14;61.44
46223;BME280;31943;51.410;7.564;2022-08-30T05:51:22;100736.59;;;16.17;61.73
46223;BME280;31943;51.410;7.564;2022-08-30T05:53:50;100740.09;;;16.22;61.96
46223;BME280;31943;51.410;7.564;2022-08-30T05:56:19;100740.91;;;16.30;62.12
46223;BME280;31943;51.410;7.564;2022-08-30T05:58:47;100744.41;;;16.37;61.63
46223;BME280;31943;51.410;7.564;2022-08-30T06:01:21;100736.44;;;16.46;61.60
46223;BME280;31943;51.410;7.564;2022-08-30T06:03:47;100742.56;;;16.53;61.55
46223;BME280;31943;51.410;7.564;2022-08-30T06:06:13;100735.47;;;16.58;61.69
46223;BME280;31943;51.410;7.564;2022-08-30T06:08:39;100738.09;;;16.61;61.86
46223;BME280;31943;51.410;7.564;2022-08-30T06:11:04;100734.59;;;16.60;62.02
46223;BME280;31943;51.410;7.564;2022-08-30T06:13:30;100736.31;;;16.61;62.39
46223;BME280;31943;51.410;7.564;2022-08-30T06:15:57;100737.19;;;16.65;62.39
46223;BME280;31943;51.410;7.564;2022-08-30T06:18:23;100752.94;;;16.71;62.22
46223;BME280;31943;51.410;7.564;2022-08-30T06:20:48;100751.16;;;16.76;61.93
46223;BME280;31943;51.410;7.564;2022-08-30T06:23:14;100753.78;;;16.83;62.02
46223;BME280;31943;51.410;7.564;2022-08-30T06:25:39;100755.56;;;16.82;62.13
46223;BME280;31943;51.410;7.564;2022-08-30T06:28:05;100761.66;;;16.79;62.57
46223;BME280;31943;51.410;7.564;2022-08-30T06:30:31;100754.66;;;16.78;62.75
46223;BME280;31943;51.410;7.564;2022-08-30T06:32:58;100757.28;;;16.80;62.96
46223;BME280;31943;51.410;7.564;2022-08-30T06:35:24;100755.50;;;16.85;62.96
46223;BME280;31943;51.410;7.564;2022-08-30T06:37:50;100750.25;;;16.87;62.88
46223;BME280;31943;51.410;7.564;2022-08-30T06:40:16;100757.28;;;16.88;62.85
46223;BME280;31943;51.410;7.564;2022-08-30T06:42:41;100751.09;;;16.89;62.98
46223;BME280;31943;51.410;7.564;2022-08-30T06:45:07;100746.69;;;16.91;63.05
46223;BME280;31943;51.410;7.564;2022-08-30T06:47:33;100749.31;;;16.91;63.44
46223;BME280;31943;51.410;7.564;2022-08-30T06:50:00;100745.81;;;16.89;63.13
46223;BME280;31943;51.410;7.564;2022-08-30T06:52:26;100748.41;;;16.95;62.92
46223;BME280;31943;51.410;7.564;2022-08-30T06:54:52;100743.06;;;17.07;62.81
46223;BME280;31943;51.410;7.564;2022-08-30T06:57:18;100735.09;;;17.13;62.39
46223;BME280;31943;51.410;7.564;2022-08-30T06:59:44;100740.28;;;17.21;62.24
46223;BME280;31943;51.410;7.564;2022-08-30T07:02:09;100742.00;;;17.24;62.53
46223;BME280;31943;51.410;7.564;2022-08-30T07:04:35;100744.59;;;17.30;62.14
46223;BME280;31943;51.410;7.564;2022-08-30T07:07:02;100751.56;;;17.37;61.94
46223;BME280;31943;51.410;7.564;2022-08-30T07:09:28;100745.34;;;17.41;61.92
46223;BME280;31943;51.410;7.564;2022-08-30T07:11:54;100740.94;;;17.45;61.82
46223;BME280;31943;51.410;7.564;2022-08-30T07:14:21;100746.16;;;17.48;61.59
46223;BME280;31943;51.410;7.564;2022-08-30T07:16:47;100737.25;;;17.58;61.64
46223;BME280;31943;51.410;7.564;2022-08-30T07:19:13;100745.09;;;17.66;61.44
46223;BME280;31943;51.410;7.564;2022-08-30T07:21:41;100748.47;;;17.77;61.53
46223;BME280;31943;51.410;7.564;2022-08-30T07:24:09;100747.50;;;17.87;61.22
46223;BME280;31943;51.410;7.564;2022-08-30T07:26:41;100753.53;;;17.97;61.02
46223;BME280;31943;51.410;7.564;2022-08-30T07:29:06;100745.50;;;18.09;61.02
46223;BME280;31943;51.410;7.564;2022-08-30T07:31:33;100747.13;;;18.18;60.61
46223;BME280;31943;51.410;7.564;2022-08-30T07:33:59;100745.22;;;18.28;60.39
46223;BME280;31943;51.410;7.564;2022-08-30T07:36:24;100744.22;;;18.36;60.31
46223;BME280;31943;51.410;7.564;2022-08-30T07:38:51;100741.53;;;18.40;60.12
46223;BME280;31943;51.410;7.564;2022-08-30T07:41:22;100743.22;;;18.47;60.06
46223;BME280;31943;51.410;7.564;2022-08-30T07:43:48;100738.69;;;18.55;59.43
46223;BME280;31943;51.410;7.564;2022-08-30T07:46:15;100738.59;;;18.60;59.22
46223;BME280;31943;51.410;7.564;2022-08-30T07:48:41;100750.72;;;18.74;59.03
46223;BME280;31943;51.410;7.564;2022-08-30T07:51:09;100748.88;;;18.80;59.13
46223;BME280;31943;51.410;7.564;2022-08-30T07:53:36;100751.47;;;18.86;58.97
46223;BME280;31943;51.410;7.564;2022-08-30T07:56:02;100752.13;;;18.99;58.70
46223;BME280;31943;51.410;7.564;2022-08-30T07:58:29;100753.81;;;19.03;58.52
46223;BME280;31943;51.410;7.564;2022-08-30T08:00:54;100748.34;;;19.13;58.52
46223;BME280;31943;51.410;7.564;2022-08-30T08:03:20;100754.25;;;19.29;58.10
46223;BME280;31943;51.410;7.564;2022-08-30T08:05:46;100754.81;;;19.45;57.35
46223;BME280;31943;51.410;7.564;2022-08-30T08:08:12;100745.88;;;19.52;57.18
46223;BME280;31943;51.410;7.564;2022-08-30T08:10:39;100751.81;;;19.64;57.29
46223;BME280;31943;51.410;7.564;2022-08-30T08:13:05;100749.03;;;19.73;57.27
46223;BME280;31943;51.410;7.564;2022-08-30T08:15:32;100748.59;;;19.94;56.75
46223;BME280;31943;51.410;7.564;2022-08-30T08:17:58;100749.38;;;20.00;56.91
46223;BME280;31943;51.410;7.564;2022-08-30T08:20:24;100750.97;;;20.08;56.63
46223;BME280;31943;51.410;7.564;2022-08-30T08:22:49;100755.09;;;20.22;56.23
46223;BME280;31943;51.410;7.564;2022-08-30T08:25:15;100753.03;;;20.34;56.02
46223;BME280;31943;51.410;7.564;2022-08-30T08:27:41;100762.75;;;20.34;55.56
46223;BME280;31943;51.410;7.564;2022-08-30T08:30:07;100761.88;;;20.35;55.81
46223;BME280;31943;51.410;7.564;2022-08-30T08:32:35;100764.13;;;20.52;55.27
46223;BME280;31943;51.410;7.564;2022-08-30T08:35:00;100760.59;;;20.53;55.29
46223;BME280;31943;51.410;7.564;2022-08-30T08:37:26;100763.16;;;20.56;55.19
46223;BME280;31943;51.410;7.564;2022-08-30T08:39:51;100759.63;;;20.55;55.30
46223;BME280;31943;51.410;7.564;2022-08-30T08:42:23;100754.44;;;20.51;55.46
46223;BME280;31943;51.410;7.564;2022-08-30T08:44:58;100751.69;;;20.55;55.33
46223;BME280;31943;51.410;7.564;2022-08-30T08:47:28;100754.69;;;20.79;54.70
46223;BME280;31943;51.410;7.564;2022-08-30T08:50:00;100754.47;;;20.88;54.78
46223;BME280;31943;51.410;7.564;2022-08-30T08:52:29;100753.44;;;20.94;54.53
46223;BME280;31943;51.410;7.564;2022-08-30T08:55:01;100747.34;;;20.90;54.54
46223;BME280;31943;51.410;7.564;2022-08-30T08:57:34;100753.59;;;20.88;54.62
46223;BME280;31943;51.410;7.564;2022-08-30T09:00:00;100746.53;;;20.87;54.65
46223;BME280;31943;51.410;7.564;2022-08-30T09:02:31;100750.81;;;20.92;54.85
46223;BME280;31943;51.410;7.564;2022-08-30T09:05:01;100753.81;;;21.14;53.88
46223;BME280;31943;51.410;7.564;2022-08-30T09:07:29;100757.03;;;21.27;53.79
46223;BME280;31943;51.410;7.564;2022-08-30T09:09:57;100748.63;;;21.44;53.20
46223;BME280;31943;51.410;7.564;2022-08-30T09:12:23;100752.53;;;21.64;52.64
46223;BME280;31943;51.410;7.564;2022-08-30T09:14:53;100756.50;;;21.80;52.30
46223;BME280;31943;51.410;7.564;2022-08-30T09:17:20;100756.00;;;21.97;52.06
46223;BME280;31943;51.410;7.564;2022-08-30T09:19:57;100750.41;;;22.08;51.69
46223;BME280;31943;51.410;7.564;2022-08-30T09:22:30;100747.66;;;22.11;51.36
46223;BME280;31943;51.410;7.564;2022-08-30T09:25:00;100748.13;;;22.24;51.72
46223;BME280;31943;51.410;7.564;2022-08-30T09:27:30;100760.75;;;22.47;51.41
46223;BME280;31943;51.410;7.564;2022-08-30T09:30:00;100757.25;;;22.46;51.04
46223;BME280;31943;51.410;7.564;2022-08-30T09:32:29;100747.78;;;22.36;51.12
46223;BME280;31943;51.410;7.564;2022-08-30T09:34:55;100752.06;;;22.42;51.28
46223;BME280;31943;51.410;7.564;2022-08-30T09:37:28;100748.53;;;22.41;50.81
46223;BME280;31943;51.410;7.564;2022-08-30T09:39:55;100751.38;;;22.63;50.72
46223;BME280;31943;51.410;7.564;2022-08-30T09:42:23;100753.75;;;22.73;49.49
46223;BME280;31943;51.410;7.564;2022-08-30T09:44:50;100746.41;;;22.79;49.92
46223;BME280;31943;51.410;7.564;2022-08-30T09:47:20;100744.91;;;22.99;49.55
46223;BME280;31943;51.410;7.564;2022-08-30T09:49:46;100747.66;;;23.22;49.23
46223;BME280;31943;51.410;7.564;2022-08-30T09:52:18;100741.56;;;23.45;48.95
46223;BME280;31943;51.410;7.564;2022-08-30T09:55:11;100735.69;;;23.61;47.92
46223;BME280;31943;51.410;7.564;2022-08-30T09:57:48;100740.72;;;23.68;47.58
46223;BME280;31943;51.410;7.564;2022-08-30T10:00:18;100732.34;;;23.79;47.42
46223;BME280;31943;51.410;7.564;2022-08-30T10:03:05;100731.50;;;23.77;46.76
46223;BME280;31943;51.410;7.564;2022-08-30T10:05:37;100733.97;;;23.83;46.78
46223;BME280;31943;51.410;7.564;2022-08-30T10:08:14;100729.59;;;24.06;46.71
46223;BME280;31943;51.410;7.564;2022-08-30T10:10:48;100727.81;;;24.28;46.69
46223;BME280;31943;51.410;7.564;2022-08-30T10:16:16;100731.34;;;24.53;45.68
46223;BME280;31943;51.410;7.564;2022-08-30T10:18:50;100730.25;;;24.35;45.82
46223;BME280;31943;51.410;7.564;2022-08-30T10:21:24;100721.56;;;24.30;45.69
46223;BME280;31943;51.410;7.564;2022-08-30T10:23:54;100721.06;;;24.42;45.79
46223;BME280;31943;51.410;7.564;2022-08-30T10:26:28;100718.63;;;24.59;44.70
46223;BME280;31943;51.410;7.564;2022-08-30T10:28:58;100718.63;;;24.59;44.83
46223;BME280;31943;51.410;7.564;2022-08-30T10:31:30;100713.59;;;24.74;44.45
46223;BME280;31943;51.410;7.564;2022-08-30T10:34:02;100702.78;;;24.77;44.21
46223;BME280;31943;51.410;7.564;2022-08-30T10:36:32;100704.13;;;24.87;44.09
46223;BME280;31943;51.410;7.564;2022-08-30T10:39:00;100706.16;;;25.02;43.89
46223;BME280;31943;51.410;7.564;2022-08-30T10:41:35;100709.56;;;25.06;43.56
46223;BME280;31943;51.410;7.564;2022-08-30T10:44:05;100716.88;;;25.01;43.06
46223;BME280;31943;51.410;7.564;2022-08-30T10:46:36;100713.81;;;24.90;43.21
46223;BME280;31943;51.410;7.564;2022-08-30T10:49:07;100714.81;;;24.87;43.78
46223;BME280;31943;51.410;7.564;2022-08-30T10:51:39;100700.59;;;24.86;43.67
46223;BME280;31943;51.410;7.564;2022-08-30T10:54:11;100701.59;;;24.84;43.36
46223;BME280;31943;51.410;7.564;2022-08-30T10:56:42;100710.03;;;24.95;43.49
46223;BME280;31943;51.410;7.564;2022-08-30T10:59:08;100699.63;;;25.10;42.67
46223;BME280;31943;51.410;7.564;2022-08-30T11:01:51;100711.84;;;25.15;42.42
46223;BME280;31943;51.410;7.564;2022-08-30T11:04:42;100692.34;;;25.34;42.67
46223;BME280;31943;51.410;7.564;2022-08-30T11:07:20;100710.16;;;25.54;42.46
46223;BME280;31943;51.410;7.564;2022-08-30T11:10:03;100703.84;;;25.56;41.68
46223;BME280;31943;51.410;7.564;2022-08-30T11:12:35;100697.13;;;25.67;41.97
46223;BME280;31943;51.410;7.564;2022-08-30T11:15:18;100700.63;;;25.88;41.03
46223;BME280;31943;51.410;7.564;2022-08-30T11:17:52;100695.63;;;25.80;41.24
46223;BME280;31943;51.410;7.564;2022-08-30T11:20:30;100695.66;;;25.99;40.85
46223;BME280;31943;51.410;7.564;2022-08-30T11:23:19;100690.03;;;26.05;40.87
46223;BME280;31943;51.410;7.564;2022-08-30T11:25:48;100695.22;;;26.08;40.64
46223;BME280;31943;51.410;7.564;2022-08-30T11:31:31;100697.09;;;26.06;39.66
46223;BME280;31943;51.410;7.564;2022-08-30T11:33:58;100698.38;;;26.16;39.94
46223;BME280;31943;51.410;7.564;2022-08-30T11:37:00;100693.97;;;26.34;40.16
46223;BME280;31943;51.410;7.564;2022-08-30T11:39:53;100699.53;;;26.49;39.69
46223;BME280;31943;51.410;7.564;2022-08-30T11:42:32;100696.81;;;26.31;39.38
46223;BME280;31943;51.410;7.564;2022-08-30T11:48:04;100690.41;;;25.97;39.44
46223;BME280;31943;51.410;7.564;2022-08-30T11:50:33;100680.94;;;25.89;40.08
46223;BME280;31943;51.410;7.564;2022-08-30T11:53:05;100689.03;;;25.68;40.04
46223;BME280;31943;51.410;7.564;2022-08-30T11:55:55;100680.13;;;25.68;40.28
46223;BME280;31943;51.410;7.564;2022-08-30T11:58:31;100672.84;;;25.52;39.99
46223;BME280;31943;51.410;7.564;2022-08-30T12:01:18;100669.13;;;25.36;39.67
46223;BME280;31943;51.410;7.564;2022-08-30T12:03:54;100675.88;;;25.44;39.68
46223;BME280;31943;51.410;7.564;2022-08-30T12:06:45;100669.28;;;25.52;39.93
46223;BME280;31943;51.410;7.564;2022-08-30T12:12:51;100666.41;;;25.96;39.81
46223;BME280;31943;51.410;7.564;2022-08-30T12:18:30;100661.00;;;26.34;37.68
46223;BME280;31943;51.410;7.564;2022-08-30T12:23:50;100668.81;;;26.38;39.02
46223;BME280;31943;51.410;7.564;2022-08-30T12:26:28;100666.94;;;26.40;37.83
46223;BME280;31943;51.410;7.564;2022-08-30T12:29:09;100669.03;;;26.34;37.47
46223;BME280;31943;51.410;7.564;2022-08-30T12:31:37;100667.72;;;26.42;38.34
46223;BME280;31943;51.410;7.564;2022-08-30T12:34:03;100650.56;;;26.47;37.84
46223;BME280;31943;51.410;7.564;2022-08-30T12:36:32;100651.56;;;26.63;37.55
46223;BME280;31943;51.410;7.564;2022-08-30T12:39:10;100652.03;;;26.35;37.43
46223;BME280;31943;51.410;7.564;2022-08-30T12:41:36;100661.72;;;26.37;38.22
46223;BME280;31943;51.410;7.564;2022-08-30T12:44:06;100657.94;;;26.41;37.41
46223;BME280;31943;51.410;7.564;2022-08-30T12:46:34;100655.75;;;26.50;37.33
46223;BME280;31943;51.410;7.564;2022-08-30T12:49:00;100651.34;;;26.49;37.65
46223;BME280;31943;51.410;7.564;2022-08-30T12:51:35;100652.69;;;26.57;37.82
46223;BME280;31943;51.410;7.564;2022-08-30T12:54:05;100647.50;;;26.54;37.16
46223;BME280;31943;51.410;7.564;2022-08-30T12:56:48;100643.59;;;26.61;37.16
46223;BME280;31943;51.410;7.564;2022-08-30T13:02:16;100648.63;;;26.68;36.91
46223;BME280;31943;51.410;7.564;2022-08-30T13:04:43;100649.59;;;26.67;36.85
46223;BME280;31943;51.410;7.564;2022-08-30T13:07:09;100639.34;;;26.75;36.76
46223;BME280;31943;51.410;7.564;2022-08-30T13:09:37;100635.50;;;26.80;36.46
46223;BME280;31943;51.410;7.564;2022-08-30T13:12:07;100642.88;;;26.93;36.05
46223;BME280;31943;51.410;7.564;2022-08-30T13:14:36;100631.56;;;27.05;36.67
46223;BME280;31943;51.410;7.564;2022-08-30T13:17:11;100637.91;;;27.02;36.08
46223;BME280;31943;51.410;7.564;2022-08-30T13:19:39;100630.13;;;26.98;35.69